sensor_id;sensor_type;location;lat;lon;timestamp;pressure;altitude;pressure_sealevel;temperature;humidity
47556;BME280;33291;46.222;26.460;2023-04-26T00:00:33;95155.84;;;8.77;100.00
47556;BME280;33291;46.222;26.460;2023-04-26T00:02:59;95160.56;;;8.73;100.00
47556;BME280;33291;46.222;26.460;2023-04-26T00:05:25;95130.50;;;8.54;100.00
47556;BME280;33291;46.222;26.460;2023-04-26T00:07:51;95154.84;;;8.69;100.00
47556;BME280;33291;46.222;26.460;2023-04-26T00:10:17;95154.03;;;8.61;100.00
47556;BME280;33291;46.222;26.460;2023-04-26T00:12:42;95147.03;;;8.53;100.00
47556;BME280;33291;46.222;26.460;2023-04-26T00:15:08;95146.72;;;8.56;100.00
47556;BME280;33291;46.222;26.460;2023-04-26T00:17:34;95158.88;;;8.56;100.00
47556;BME280;33291;46.222;26.460;2023-04-26T00:20:00;95149.31;;;8.48;100.00
47556;BME280;33291;46.222;26.460;2023-04-26T00:22:27;95161.63;;;8.46;100.00
47556;BME280;33291;46.222;26.460;2023-04-26T00:24:53;95164.38;;;8.44;100.00
47556;BME280;33291;46.222;26.460;2023-04-26T00:27:18;95161.56;;;8.38;100.00
47556;BME280;33291;46.222;26.460;2023-04-26T00:29:44;95163.19;;;8.39;100.00
47556;BME280;33291;46.222;26.460;2023-04-26T00:32:09;95146.94;;;8.28;100.00
47556;BME280;33291;46.222;26.460;2023-04-26T00:34:36;95170.97;;;8.39;100.00
47556;BME280;33291;46.222;26.460;2023-04-26T00:37:02;95174.53;;;8.38;100.00
47556;BME280;33291;46.222;26.460;2023-04-26T00:39:28;95167.72;;;8.36;100.00
47556;BME280;33291;46.222;26.460;2023-04-26T00:41:54;95148.22;;;8.24;100.00
47556;BME280;33291;46.222;26.460;2023-04-26T00:44:20;95171.63;;;8.32;100.00
47556;BME280;33291;46.222;26.460;2023-04-26T00:46:46;95172.25;;;8.26;100.00
47556;BME280;33291;46.222;26.460;2023-04-26T00:49:15;95175.81;;;8.25;100.00
47556;BME280;33291;46.222;26.460;2023-04-26T00:51:43;95176.59;;;8.26;100.00
47556;BME280;33291;46.222;26.460;2023-04-26T00:54:09;95168.97;;;8.24;100.00
47556;BME280;33291;46.222;26.460;2023-04-26T00:56:36;95167.69;;;8.20;100.00
47556;BME280;33291;46.222;26.460;2023-04-26T00:59:02;95170.44;;;8.18;100.00
47556;BME280;33291;46.222;26.460;2023-04-26T01:01:28;95168.81;;;8.17;100.00
47556;BME280;33291;46.222;26.460;2023-04-26T01:03:54;95162.44;;;8.12;100.00
47556;BME280;33291;46.222;26.460;2023-04-26T01:06:21;95161.16;;;8.08;100.00
47556;BME280;33291;46.222;26.460;2023-04-26T01:08:47;95168.41;;;8.04;100.00
47556;BME280;33291;46.222;26.460;2023-04-26T01:11:13;95159.47;;;7.98;100.00
47556;BME280;33291;46.222;26.460;2023-04-26T01:13:40;95157.56;;;8.00;100.00
47556;BME280;33291;46.222;26.460;2023-04-26T01:16:07;95158.50;;;7.99;100.00
47556;BME280;33291;46.222;26.460;2023-04-26T01:18:33;95157.88;;;7.97;100.00
47556;BME280;33291;46.222;26.460;2023-04-26T01:20:59;95167.94;;;8.00;100.00
47556;BME280;33291;46.222;26.460;2023-04-26T01:23:24;95158.50;;;7.99;100.00
47556;BME280;33291;46.222;26.460;2023-04-26T01:25:50;95166.91;;;7.93;100.00
47556;BME280;33291;46.222;26.460;2023-04-26T01:28:16;95162.66;;;7.84;100.00
47556;BME280;33291;46.222;26.460;2023-04-26T01:30:42;95150.47;;;7.76;100.00
47556;BME280;33291;46.222;26.460;2023-04-26T01:33:07;95165.91;;;7.86;100.00
47556;BME280;33291;46.222;26.460;2023-04-26T01:35:33;95170.78;;;7.89;100.00
47556;BME280;33291;46.222;26.460;2023-04-26T01:37:58;95155.19;;;7.81;100.00
47556;BME280;33291;46.222;26.460;2023-04-26T01:40:24;95170.78;;;7.89;100.00
47556;BME280;33291;46.222;26.460;2023-04-26T01:42:49;95163.47;;;7.85;100.00
47556;BME280;33291;46.222;26.460;2023-04-26T01:45:15;95165.09;;;7.86;100.00
47556;BME280;33291;46.222;26.460;2023-04-26T01:47:41;95167.84;;;7.84;100.00
47556;BME280;33291;46.222;26.460;2023-04-26T01:50:07;95168.81;;;7.83;100.00
47556;BME280;33291;46.222;26.460;2023-04-26T01:52:33;95167.94;;;7.74;100.00
47556;BME280;33291;46.222;26.460;2023-04-26T01:54:58;95172.63;;;7.71;100.00
47556;BME280;33291;46.222;26.460;2023-04-26T01:57:24;95168.25;;;7.71;100.00
47556;BME280;33291;46.222;26.460;2023-04-26T01:59:49;95152.66;;;7.63;100.00
47556;BME280;33291;46.222;26.460;2023-04-26T02:02:16;95162.25;;;7.71;100.00
47556;BME280;33291;46.222;26.460;2023-04-26T02:04:43;95165.22;;;7.76;100.00
47556;BME280;33291;46.222;26.460;2023-04-26T02:07:08;95165.00;;;7.69;100.00
47556;BME280;33291;46.222;26.460;2023-04-26T02:09:34;95127.97;;;7.51;100.00
47556;BME280;33291;46.222;26.460;2023-04-26T02:11:59;95159.81;;;7.69;100.00
47556;BME280;33291;46.222;26.460;2023-04-26T02:14:25;95156.59;;;7.67;100.00
47556;BME280;33291;46.222;26.460;2023-04-26T02:16:50;95159.97;;;7.68;100.00
47556;BME280;33291;46.222;26.460;2023-04-26T02:19:16;95148.59;;;7.60;100.00
47556;BME280;33291;46.222;26.460;2023-04-26T02:21:52;95140.81;;;7.60;100.00
47556;BME280;33291;46.222;26.460;2023-04-26T02:24:18;95155.97;;;7.73;100.00
47556;BME280;33291;46.222;26.460;2023-04-26T02:26:44;95159.03;;;7.69;100.00
47556;BME280;33291;46.222;26.460;2023-04-26T02:29:09;95158.66;;;7.63;100.00
47556;BME280;33291;46.222;26.460;2023-04-26T02:31:35;95160.28;;;7.64;100.00
47556;BME280;33291;46.222;26.460;2023-04-26T02:34:00;95157.19;;;7.61;100.00
47556;BME280;33291;46.222;26.460;2023-04-26T02:36:26;95152.81;;;7.61;100.00
47556;BME280;33291;46.222;26.460;2023-04-26T02:38:51;95158.34;;;7.67;100.00
47556;BME280;33291;46.222;26.460;2023-04-26T02:41:17;95159.81;;;7.69;100.00
47556;BME280;33291;46.222;26.460;2023-04-26T02:43:42;95159.03;;;7.69;100.00
47556;BME280;33291;46.222;26.460;2023-04-26T02:46:08;95156.59;;;7.67;100.00
47556;BME280;33291;46.222;26.460;2023-04-26T02:48:33;95155.44;;;7.70;100.00
47556;BME280;33291;46.222;26.460;2023-04-26T02:50:59;95153.84;;;7.69;100.00
47556;BME280;33291;46.222;26.460;2023-04-26T02:53:24;95149.28;;;7.62;100.00
47556;BME280;33291;46.222;26.460;2023-04-26T02:55:49;95146.00;;;7.60;100.00
47556;BME280;33291;46.222;26.460;2023-04-26T02:58:15;95155.75;;;7.67;100.00
47556;BME280;33291;46.222;26.460;2023-04-26T03:00:45;95164.81;;;7.62;100.00
47556;BME280;33291;46.222;26.460;2023-04-26T03:03:12;95169.69;;;7.65;100.00
47556;BME280;33291;46.222;26.460;2023-04-26T03:05:37;95164.66;;;7.64;100.00
47556;BME280;33291;46.222;26.460;2023-04-26T03:08:03;95162.56;;;7.68;100.00
47556;BME280;33291;46.222;26.460;2023-04-26T03:10:28;95154.00;;;7.67;100.00
47556;BME280;33291;46.222;26.460;2023-04-26T03:12:54;95159.97;;;7.68;100.00
47556;BME280;33291;46.222;26.460;2023-04-26T03:15:19;95155.75;;;7.67;100.00
47556;BME280;33291;46.222;26.460;2023-04-26T03:17:45;95163.69;;;7.65;100.00
47556;BME280;33291;46.222;26.460;2023-04-26T03:20:10;95167.91;;;7.66;100.00
47556;BME280;33291;46.222;26.460;2023-04-26T03:22:36;95171.59;;;7.63;100.00
47556;BME280;33291;46.222;26.460;2023-04-26T03:25:01;95173.56;;;7.61;100.00
47556;BME280;33291;46.222;26.460;2023-04-26T03:27:28;95172.22;;;7.57;100.00
47556;BME280;33291;46.222;26.460;2023-04-26T03:29:53;95180.69;;;7.59;100.00
47556;BME280;33291;46.222;26.460;2023-04-26T03:32:18;95179.03;;;7.58;100.00
47556;BME280;33291;46.222;26.460;2023-04-26T03:34:44;95161.81;;;7.49;100.00
47556;BME280;33291;46.222;26.460;2023-04-26T03:37:11;95181.97;;;7.63;100.00
47556;BME280;33291;46.222;26.460;2023-04-26T03:39:37;95187.84;;;7.65;100.00
47556;BME280;33291;46.222;26.460;2023-04-26T03:42:03;95193.66;;;7.68;100.00
47556;BME280;33291;46.222;26.460;2023-04-26T03:44:28;95195.31;;;7.69;100.00
47556;BME280;33291;46.222;26.460;2023-04-26T03:46:54;95194.78;;;7.65;100.00
47556;BME280;33291;46.222;26.460;2023-04-26T03:49:20;95196.25;;;7.68;100.00
47556;BME280;33291;46.222;26.460;2023-04-26T03:51:45;95191.22;;;7.66;100.00
47556;BME280;33291;46.222;26.460;2023-04-26T03:54:11;95200.50;;;7.69;100.00
47556;BME280;33291;46.222;26.460;2023-04-26T03:56:36;95201.16;;;7.71;100.00
47556;BME280;33291;46.222;26.460;2023-04-26T03:59:03;95201.78;;;7.73;100.00
47556;BME280;33291;46.222;26.460;2023-04-26T04:01:28;95205.38;;;7.72;100.00
47556;BME280;33291;46.222;26.460;2023-04-26T04:03:54;95205.69;;;7.69;100.00
47556;BME280;33291;46.222;26.460;2023-04-26T04:06:19;95214.91;;;7.71;100.00
47556;BME280;33291;46.222;26.460;2023-04-26T04:08:45;95220.63;;;7.75;100.00
47556;BME280;33291;46.222;26.460;2023-04-26T04:11:11;95218.97;;;7.74;100.00
47556;BME280;33291;46.222;26.460;2023-04-26T04:13:36;95220.63;;;7.75;100.00
47556;BME280;33291;46.222;26.460;2023-04-26T04:16:02;95229.72;;;7.79;100.00
47556;BME280;33291;46.222;26.460;2023-04-26T04:18:28;95235.56;;;7.81;100.00
47556;BME280;33291;46.222;26.460;2023-04-26T04:20:54;95237.19;;;7.82;100.00
47556;BME280;33291;46.222;26.460;2023-04-26T04:23:20;95233.56;;;7.75;100.00
47556;BME280;33291;46.222;26.460;2023-04-26T04:25:45;95237.19;;;7.82;100.00
47556;BME280;33291;46.222;26.460;2023-04-26T04:28:13;95244.81;;;7.83;100.00
47556;BME280;33291;46.222;26.460;2023-04-26T04:30:38;95237.19;;;7.82;100.00
47556;BME280;33291;46.222;26.460;2023-04-26T04:33:04;95241.69;;;7.80;100.00
47556;BME280;33291;46.222;26.460;2023-04-26T04:35:30;95256.19;;;7.91;100.00
47556;BME280;33291;46.222;26.460;2023-04-26T04:37:58;95240.09;;;7.79;100.00
47556;BME280;33291;46.222;26.460;2023-04-26T04:40:24;95261.22;;;7.92;100.00
47556;BME280;33291;46.222;26.460;2023-04-26T04:42:50;95260.56;;;7.90;100.00
47556;BME280;33291;46.222;26.460;2023-04-26T04:45:15;95252.78;;;7.90;100.00
47556;BME280;33291;46.222;26.460;2023-04-26T04:47:42;95248.06;;;7.86;100.00
47556;BME280;33291;46.222;26.460;2023-04-26T04:50:08;95260.41;;;7.92;100.00
47556;BME280;33291;46.222;26.460;2023-04-26T04:52:34;95256.72;;;7.94;100.00
47556;BME280;33291;46.222;26.460;2023-04-26T04:54:59;95258.31;;;7.95;100.00
47556;BME280;33291;46.222;26.460;2023-04-26T04:57:25;95261.94;;;8.03;100.00
47556;BME280;33291;46.222;26.460;2023-04-26T04:59:51;95264.06;;;8.07;100.00
47556;BME280;33291;46.222;26.460;2023-04-26T05:02:17;95262.34;;;8.16;100.00
47556;BME280;33291;46.222;26.460;2023-04-26T05:04:43;95275.50;;;8.23;100.00
47556;BME280;33291;46.222;26.460;2023-04-26T05:07:08;95269.19;;;8.25;100.00
47556;BME280;33291;46.222;26.460;2023-04-26T05:09:34;95265.31;;;8.29;100.00
47556;BME280;33291;46.222;26.460;2023-04-26T05:11:59;95263.38;;;8.31;100.00
47556;BME280;33291;46.222;26.460;2023-04-26T05:14:25;95266.03;;;8.40;100.00
47556;BME280;33291;46.222;26.460;2023-04-26T05:16:51;95270.91;;;8.43;100.00
47556;BME280;33291;46.222;26.460;2023-04-26T05:19:17;95262.75;;;8.38;100.00
47556;BME280;33291;46.222;26.460;2023-04-26T05:21:42;95276.31;;;8.49;100.00
47556;BME280;33291;46.222;26.460;2023-04-26T05:24:07;95265.13;;;8.49;100.00
47556;BME280;33291;46.222;26.460;2023-04-26T05:26:34;95266.72;;;8.50;100.00
47556;BME280;33291;46.222;26.460;2023-04-26T05:29:00;95263.34;;;8.58;100.00
47556;BME280;33291;46.222;26.460;2023-04-26T05:31:25;95258.38;;;8.64;100.00
47556;BME280;33291;46.222;26.460;2023-04-26T05:33:51;95265.53;;;8.79;100.00
47556;BME280;33291;46.222;26.460;2023-04-26T05:36:17;95270.59;;;8.88;100.00
47556;BME280;33291;46.222;26.460;2023-04-26T05:38:42;95274.34;;;8.94;100.00
47556;BME280;33291;46.222;26.460;2023-04-26T05:41:07;95262.03;;;8.96;100.00
47556;BME280;33291;46.222;26.460;2023-04-26T05:43:33;95265.47;;;9.05;100.00
47556;BME280;33291;46.222;26.460;2023-04-26T05:45:58;95270.00;;;9.11;100.00
47556;BME280;33291;46.222;26.460;2023-04-26T05:48:24;95290.31;;;9.24;100.00
47556;BME280;33291;46.222;26.460;2023-04-26T05:50:51;95288.03;;;9.29;100.00
47556;BME280;33291;46.222;26.460;2023-04-26T05:53:17;95289.19;;;9.35;100.00
47556;BME280;33291;46.222;26.460;2023-04-26T05:55:43;95294.06;;;9.38;99.96
47556;BME280;33291;46.222;26.460;2023-04-26T05:58:09;95296.00;;;9.44;98.92
47556;BME280;33291;46.222;26.460;2023-04-26T06:00:35;95284.97;;;9.42;97.77
47556;BME280;33291;46.222;26.460;2023-04-26T06:03:01;95289.84;;;9.45;97.24
47556;BME280;33291;46.222;26.460;2023-04-26T06:05:27;95299.59;;;9.51;96.92
47556;BME280;33291;46.222;26.460;2023-04-26T06:07:52;95308.03;;;9.53;97.11
47556;BME280;33291;46.222;26.460;2023-04-26T06:10:18;95307.88;;;9.55;96.49
47556;BME280;33291;46.222;26.460;2023-04-26T06:12:44;95307.06;;;9.54;96.48
47556;BME280;33291;46.222;26.460;2023-04-26T06:15:10;95306.09;;;9.47;96.69
47556;BME280;33291;46.222;26.460;2023-04-26T06:17:36;95303.34;;;9.49;96.74
47556;BME280;33291;46.222;26.460;2023-04-26T06:20:02;95304.31;;;9.48;96.64
47556;BME280;33291;46.222;26.460;2023-04-26T06:22:27;95313.88;;;9.47;96.32
47556;BME280;33291;46.222;26.460;2023-04-26T06:24:53;95290.97;;;9.34;95.95
47556;BME280;33291;46.222;26.460;2023-04-26T06:27:18;95319.59;;;9.51;95.34
47556;BME280;33291;46.222;26.460;2023-04-26T06:29:44;95299.75;;;9.33;95.11
47556;BME280;33291;46.222;26.460;2023-04-26T06:32:09;95327.72;;;9.48;94.94
47556;BME280;33291;46.222;26.460;2023-04-26T06:34:35;95331.91;;;9.49;94.31
47556;BME280;33291;46.222;26.460;2023-04-26T06:37:03;95307.22;;;9.28;94.48
47556;BME280;33291;46.222;26.460;2023-04-26T06:39:28;95340.19;;;9.44;94.59
47556;BME280;33291;46.222;26.460;2023-04-26T06:41:54;95343.63;;;9.45;95.04
47556;BME280;33291;46.222;26.460;2023-04-26T06:44:20;95342.31;;;9.40;95.35
47556;BME280;33291;46.222;26.460;2023-04-26T06:46:45;95348.31;;;9.41;95.16
47556;BME280;33291;46.222;26.460;2023-04-26T06:49:11;95342.63;;;9.37;95.19
47556;BME280;33291;46.222;26.460;2023-04-26T06:51:36;95346.19;;;9.36;95.56
47556;BME280;33291;46.222;26.460;2023-04-26T06:54:02;95356.94;;;9.41;95.82
47556;BME280;33291;46.222;26.460;2023-04-26T06:56:27;95369.63;;;9.45;96.00
47556;BME280;33291;46.222;26.460;2023-04-26T06:59:00;95353.34;;;9.42;95.88
47556;BME280;33291;46.222;26.460;2023-04-26T07:01:27;95362.63;;;9.45;95.90
47556;BME280;33291;46.222;26.460;2023-04-26T07:03:54;95366.19;;;9.44;95.45
47556;BME280;33291;46.222;26.460;2023-04-26T07:06:21;95365.72;;;9.40;95.67
47556;BME280;33291;46.222;26.460;2023-04-26T07:08:46;95366.34;;;9.42;95.66
47556;BME280;33291;46.222;26.460;2023-04-26T07:11:12;95372.19;;;9.36;95.74
47556;BME280;33291;46.222;26.460;2023-04-26T07:13:37;95382.25;;;9.39;96.10
47556;BME280;33291;46.222;26.460;2023-04-26T07:16:03;95356.41;;;9.21;96.23
47556;BME280;33291;46.222;26.460;2023-04-26T07:18:29;95394.63;;;9.37;96.42
47556;BME280;33291;46.222;26.460;2023-04-26T07:20:54;95396.72;;;9.34;96.17
47556;BME280;33291;46.222;26.460;2023-04-26T07:23:20;95403.84;;;9.32;96.24
47556;BME280;33291;46.222;26.460;2023-04-26T07:25:45;95406.75;;;9.29;95.61
47556;BME280;33291;46.222;26.460;2023-04-26T07:28:11;95407.09;;;9.25;96.05
47556;BME280;33291;46.222;26.460;2023-04-26T07:30:36;95391.25;;;9.02;96.26
47556;BME280;33291;46.222;26.460;2023-04-26T07:33:02;95395.50;;;9.03;96.85
47556;BME280;33291;46.222;26.460;2023-04-26T07:35:27;95420.53;;;9.13;97.05
47556;BME280;33291;46.222;26.460;2023-04-26T07:37:53;95424.72;;;9.05;97.60
47556;BME280;33291;46.222;26.460;2023-04-26T07:40:18;95430.88;;;9.04;97.72
47556;BME280;33291;46.222;26.460;2023-04-26T07:42:47;95424.66;;;8.97;97.77
47556;BME280;33291;46.222;26.460;2023-04-26T07:45:12;95423.66;;;8.90;98.13
47556;BME280;33291;46.222;26.460;2023-04-26T07:47:37;95429.78;;;8.81;99.13
47556;BME280;33291;46.222;26.460;2023-04-26T07:50:04;95450.44;;;8.91;99.27
47556;BME280;33291;46.222;26.460;2023-04-26T07:52:29;95454.47;;;8.85;99.78
47556;BME280;33291;46.222;26.460;2023-04-26T07:54:55;95456.41;;;8.83;100.00
47556;BME280;33291;46.222;26.460;2023-04-26T07:57:21;95455.06;;;8.79;100.00
47556;BME280;33291;46.222;26.460;2023-04-26T07:59:46;95473.25;;;8.79;100.00
47556;BME280;33291;46.222;26.460;2023-04-26T08:02:11;95468.06;;;8.79;100.00
47556;BME280;33291;46.222;26.460;2023-04-26T08:04:37;95434.66;;;8.58;100.00
47556;BME280;33291;46.222;26.460;2023-04-26T08:07:02;95463.31;;;8.74;100.00
47556;BME280;33291;46.222;26.460;2023-04-26T08:09:28;95468.38;;;8.76;100.00
47556;BME280;33291;46.222;26.460;2023-04-26T08:11:55;95481.19;;;8.77;100.00
47556;BME280;33291;46.222;26.460;2023-04-26T08:14:20;95474.25;;;8.78;100.00
47556;BME280;33291;46.222;26.460;2023-04-26T08:16:46;95480.25;;;8.78;100.00
47556;BME280;33291;46.222;26.460;2023-04-26T08:19:11;95475.84;;;8.79;100.00
47556;BME280;33291;46.222;26.460;2023-04-26T08:21:37;95477.63;;;8.78;100.00
47556;BME280;33291;46.222;26.460;2023-04-26T08:24:02;95471.66;;;8.78;100.00
47556;BME280;33291;46.222;26.460;2023-04-26T08:26:28;95483.63;;;8.79;100.00
47556;BME280;33291;46.222;26.460;2023-04-26T08:28:53;95477.13;;;8.75;100.00
47556;BME280;33291;46.222;26.460;2023-04-26T08:31:19;95483.34;;;8.82;100.00
47556;BME280;33291;46.222;26.460;2023-04-26T08:33:47;95471.13;;;8.74;100.00
47556;BME280;33291;46.222;26.460;2023-04-26T08:36:12;95483.34;;;8.82;100.00
47556;BME280;33291;46.222;26.460;2023-04-26T08:38:38;95482.72;;;8.88;100.00
47556;BME280;33291;46.222;26.460;2023-04-26T08:41:04;95480.81;;;8.90;100.00
47556;BME280;33291;46.222;26.460;2023-04-26T08:43:29;95473.00;;;8.90;100.00
47556;BME280;33291;46.222;26.460;2023-04-26T08:45:58;95479.16;;;8.89;100.00
47556;BME280;33291;46.222;26.460;2023-04-26T08:48:26;95479.00;;;8.91;100.00
47556;BME280;33291;46.222;26.460;2023-04-26T08:50:52;95473.47;;;8.85;100.00
47556;BME280;33291;46.222;26.460;2023-04-26T08:53:18;95482.06;;;8.86;100.00
47556;BME280;33291;46.222;26.460;2023-04-26T08:55:47;95486.94;;;8.89;100.00
47556;BME280;33291;46.222;26.460;2023-04-26T08:58:14;95486.59;;;8.84;100.00
47556;BME280;33291;46.222;26.460;2023-04-26T09:00:42;95491.19;;;8.90;100.00
47556;BME280;33291;46.222;26.460;2023-04-26T09:03:09;95491.84;;;8.92;100.00
47556;BME280;33291;46.222;26.460;2023-04-26T09:05:35;95491.84;;;8.92;100.00
47556;BME280;33291;46.222;26.460;2023-04-26T09:08:03;95492.81;;;8.91;100.00
47556;BME280;33291;46.222;26.460;2023-04-26T09:10:31;95491.22;;;8.98;100.00
47556;BME280;33291;46.222;26.460;2023-04-26T09:12:57;95484.31;;;8.81;100.00
47556;BME280;33291;46.222;26.460;2023-04-26T09:15:26;95493.47;;;8.93;100.00
47556;BME280;33291;46.222;26.460;2023-04-26T09:17:52;95498.81;;;8.92;100.00
47556;BME280;33291;46.222;26.460;2023-04-26T09:20:23;95494.75;;;8.89;100.00
47556;BME280;33291;46.222;26.460;2023-04-26T09:22:53;95502.38;;;8.91;100.00
47556;BME280;33291;46.222;26.460;2023-04-26T09:25:27;95501.19;;;8.85;100.00
47556;BME280;33291;46.222;26.460;2023-04-26T09:27:53;95506.53;;;8.83;100.00
47556;BME280;33291;46.222;26.460;2023-04-26T09:30:20;95520.69;;;8.81;100.00
47556;BME280;33291;46.222;26.460;2023-04-26T09:32:59;95515.78;;;8.78;100.00
47556;BME280;33291;46.222;26.460;2023-04-26T09:35:43;95526.47;;;8.75;100.00
47556;BME280;33291;46.222;26.460;2023-04-26T09:38:16;95530.97;;;8.73;100.00
47556;BME280;33291;46.222;26.460;2023-04-26T09:40:46;95537.00;;;8.73;100.00
47556;BME280;33291;46.222;26.460;2023-04-26T09:48:32;95536.19;;;8.73;100.00
47556;BME280;33291;46.222;26.460;2023-04-26T09:55:54;95543.00;;;8.74;100.00
47556;BME280;33291;46.222;26.460;2023-04-26T09:58:20;95548.84;;;8.76;100.00
47556;BME280;33291;46.222;26.460;2023-04-26T10:00:49;95541.97;;;8.66;100.00
47556;BME280;33291;46.222;26.460;2023-04-26T10:03:19;95550.44;;;8.68;99.95
47556;BME280;33291;46.222;26.460;2023-04-26T10:05:45;95556.59;;;8.67;100.00
47556;BME280;33291;46.222;26.460;2023-04-26T10:08:10;95552.97;;;8.60;99.89
47556;BME280;33291;46.222;26.460;2023-04-26T10:10:36;95548.66;;;8.51;100.00
47556;BME280;33291;46.222;26.460;2023-04-26T10:13:02;95559.25;;;8.58;99.78
47556;BME280;33291;46.222;26.460;2023-04-26T10:15:30;95566.53;;;8.54;99.82
47556;BME280;33291;46.222;26.460;2023-04-26T10:17:56;95556.09;;;8.46;100.00
47556;BME280;33291;46.222;26.460;2023-04-26T10:20:23;95545.28;;;8.41;100.00
47556;BME280;33291;46.222;26.460;2023-04-26T10:22:52;95556.59;;;8.49;100.00
47556;BME280;33291;46.222;26.460;2023-04-26T10:25:19;95570.47;;;8.58;100.00
47556;BME280;33291;46.222;26.460;2023-04-26T10:30:15;95576.31;;;8.60;99.65
47556;BME280;33291;46.222;26.460;2023-04-26T10:35:16;95572.63;;;8.63;99.94
47556;BME280;33291;46.222;26.460;2023-04-26T10:40:39;95587.75;;;8.67;99.11
47556;BME280;33291;46.222;26.460;2023-04-26T10:45:34;95563.59;;;8.49;99.47
47556;BME280;33291;46.222;26.460;2023-04-26T10:48:20;95583.00;;;8.63;100.00
47556;BME280;33291;46.222;26.460;2023-04-26T10:55:54;95596.94;;;8.62;98.83
47556;BME280;33291;46.222;26.460;2023-04-26T11:03:30;95592.03;;;8.59;98.70
47556;BME280;33291;46.222;26.460;2023-04-26T11:05:56;95601.84;;;8.65;98.44
47556;BME280;33291;46.222;26.460;2023-04-26T11:11:11;95601.53;;;8.68;98.29
47556;BME280;33291;46.222;26.460;2023-04-26T11:13:39;95606.97;;;8.75;98.11
47556;BME280;33291;46.222;26.460;2023-04-26T11:16:15;95605.69;;;8.79;98.03
47556;BME280;33291;46.222;26.460;2023-04-26T11:18:46;95608.44;;;8.77;98.02
47556;BME280;33291;46.222;26.460;2023-04-26T11:21:12;95602.38;;;8.68;91.70
47556;BME280;33291;46.222;26.460;2023-04-26T11:23:42;95610.50;;;8.74;91.05
47556;BME280;33291;46.222;26.460;2023-04-26T11:26:08;95623.56;;;8.82;89.50
47556;BME280;33291;46.222;26.460;2023-04-26T11:28:37;95619.34;;;8.81;82.40
47556;BME280;33291;46.222;26.460;2023-04-26T11:31:04;95619.50;;;8.79;81.24
47556;BME280;33291;46.222;26.460;2023-04-26T11:33:31;95618.59;;;8.88;82.72
47556;BME280;33291;46.222;26.460;2023-04-26T11:35:58;95627.41;;;8.96;82.75
47556;BME280;33291;46.222;26.460;2023-04-26T11:38:26;95629.56;;;9.00;80.72
47556;BME280;33291;46.222;26.460;2023-04-26T11:40:55;95626.97;;;9.00;75.93
47556;BME280;33291;46.222;26.460;2023-04-26T11:43:21;95618.19;;;9.01;78.54
47556;BME280;33291;46.222;26.460;2023-04-26T11:45:47;95609.16;;;9.05;77.73
47556;BME280;33291;46.222;26.460;2023-04-26T11:48:13;95618.94;;;9.12;77.60
47556;BME280;33291;46.222;26.460;2023-04-26T11:50:39;95621.53;;;9.12;74.28
47556;BME280;33291;46.222;26.460;2023-04-26T11:53:07;95618.63;;;9.15;75.16
47556;BME280;33291;46.222;26.460;2023-04-26T11:55:33;95631.97;;;9.20;75.11
47556;BME280;33291;46.222;26.460;2023-04-26T11:58:01;95623.16;;;9.13;74.33
47556;BME280;33291;46.222;26.460;2023-04-26T12:00:33;95629.53;;;9.18;74.36
47556;BME280;33291;46.222;26.460;2023-04-26T12:03:04;95622.72;;;9.17;73.66
47556;BME280;33291;46.222;26.460;2023-04-26T12:05:30;95633.59;;;9.21;73.82
47556;BME280;33291;46.222;26.460;2023-04-26T12:07:57;95602.53;;;9.11;73.98
47556;BME280;33291;46.222;26.460;2023-04-26T12:10:23;95630.72;;;9.24;73.47
47556;BME280;33291;46.222;26.460;2023-04-26T12:12:50;95632.69;;;9.30;74.22
47556;BME280;33291;46.222;26.460;2023-04-26T12:15:23;95624.56;;;9.25;72.45
47556;BME280;33291;46.222;26.460;2023-04-26T12:18:07;95632.41;;;9.33;73.40
47556;BME280;33291;46.222;26.460;2023-04-26T12:20:34;95612.22;;;9.27;72.71
47556;BME280;33291;46.222;26.460;2023-04-26T12:23:08;95631.44;;;9.34;73.01
47556;BME280;33291;46.222;26.460;2023-04-26T12:25:35;95627.41;;;9.40;72.47
47556;BME280;33291;46.222;26.460;2023-04-26T12:28:04;95629.19;;;9.39;71.67
47556;BME280;33291;46.222;26.460;2023-04-26T12:30:32;95641.53;;;9.37;71.13
47556;BME280;33291;46.222;26.460;2023-04-26T12:32:58;95637.59;;;9.33;71.25
47556;BME280;33291;46.222;26.460;2023-04-26T12:35:24;95637.13;;;9.38;71.27
47556;BME280;33291;46.222;26.460;2023-04-26T12:37:50;95629.78;;;9.33;71.31
47556;BME280;33291;46.222;26.460;2023-04-26T12:40:18;95643.31;;;9.37;71.26
47556;BME280;33291;46.222;26.460;2023-04-26T12:42:47;95643.47;;;9.35;71.26
47556;BME280;33291;46.222;26.460;2023-04-26T12:45:13;95652.28;;;9.42;71.32
47556;BME280;33291;46.222;26.460;2023-04-26T12:47:39;95657.31;;;9.44;71.33
47556;BME280;33291;46.222;26.460;2023-04-26T12:50:05;95665.66;;;9.48;74.64
47556;BME280;33291;46.222;26.460;2023-04-26T12:52:30;95659.47;;;9.49;76.42
47556;BME280;33291;46.222;26.460;2023-04-26T12:54:57;95658.06;;;9.36;79.70
47556;BME280;33291;46.222;26.460;2023-04-26T12:57:23;95670.25;;;9.36;82.29
47556;BME280;33291;46.222;26.460;2023-04-26T12:59:48;95671.69;;;9.30;84.13
47556;BME280;33291;46.222;26.460;2023-04-26T13:02:14;95681.41;;;9.28;87.15
47556;BME280;33291;46.222;26.460;2023-04-26T13:04:39;95678.53;;;9.13;88.58
47556;BME280;33291;46.222;26.460;2023-04-26T13:07:05;95698.38;;;9.14;90.12
47556;BME280;33291;46.222;26.460;2023-04-26T13:09:31;95695.16;;;9.02;91.50
47556;BME280;33291;46.222;26.460;2023-04-26T13:11:56;95687.72;;;8.89;92.21
47556;BME280;33291;46.222;26.460;2023-04-26T13:14:22;95698.66;;;8.93;93.08
47556;BME280;33291;46.222;26.460;2023-04-26T13:16:48;95699.84;;;8.81;94.22
47556;BME280;33291;46.222;26.460;2023-04-26T13:19:13;95689.59;;;8.61;94.34
47556;BME280;33291;46.222;26.460;2023-04-26T13:21:39;95712.59;;;8.74;95.31